Latest Weather Observations for Devonport Airport

IDT60801

Issued at 10:02 am EST Sunday 25 September 2016 (issued every 30 minutes, with the page automatically refreshed every 10 minutes)

About weather observations | Map of weather stations | Latest weather observations for TAS | Other Formats
Station Details ID: 091126 Name: DEVONPORT AIRPORT Lat: -41.17 Lon: 146.43 Height: 8.0 m
Data from the previous 72 hours. | See also: Recent months at Devonport Airport
Date/Time
EST
Temp
°C
App
Temp
°C
Dew
Point
°C
Rel
Hum
%
Delta-T
°C
Wind Press
QNH
hPa
Press
MSL
hPa
Rain since
9am
mm
Dir  Spd
km/h
Gust
km/h
Spd
kts
Gust
kts
25/10:00am 13.7 6.8 4.8 55 4.1 W 30 37 16 20 1005.3 1005.3 0.0
25/09:30am 13.5 7.9 5.2 57 3.9 W 24 35 13 19 1005.3 1005.3 0.0
25/09:00am 12.6 5.2 5.1 60 3.5 W 33 41 18 22 1005.1 1005.1 1.8
25/08:30am 11.9 5.1 5.1 63 3.1 W 30 37 16 20 1004.9 1004.9 1.8
25/08:00am 11.7 5.1 6.0 68 2.7 W 30 37 16 20 1004.6 1004.6 1.8
25/07:30am 11.0 5.1 5.7 70 2.4 WNW 26 35 14 19 1004.1 1004.1 1.8
25/07:00am 10.4 5.8 6.4 76 1.9 W 20 26 11 14 1003.9 1003.9 1.8
25/06:38am 9.5 5.5 6.6 82 1.4 W 17 20 9 11 1003.8 1003.8 1.8
25/06:30am 9.5 5.1 6.6 82 1.4 W 19 22 10 12 1003.7 1003.7 1.8
25/06:20am 9.7 5.2 6.8 82 1.4 W 20 26 11 14 1003.6 1003.6 1.8
25/06:00am 10.4 5.2 7.3 81 1.5 W 24 33 13 18 1003.2 1003.2 1.8
25/05:30am 11.6 7.3 9.3 86 1.2 W 22 28 12 15 1002.6 1002.6 1.8
25/05:00am 12.2 6.7 10.4 89 0.9 W 30 39 16 21 1002.0 1002.0 1.8
25/04:50am 12.1 6.9 10.3 89 0.9 WNW 28 37 15 20 1001.8 1001.8 1.8
25/04:46am 12.2 7.0 10.4 89 0.9 WNW 28 37 15 20 1001.8 1001.8 1.8
25/04:30am 12.4 10.0 11.3 93 0.6 NNW 15 20 8 11 1001.9 1001.9 1.8
25/04:00am 12.7 8.2 11.4 92 0.7 N 26 32 14 17 1002.2 1002.2 1.8
25/03:43am 12.7 9.5 11.4 92 0.7 NW 19 26 10 14 1002.2 1002.2 1.8
25/03:30am 12.4 9.4 10.8 90 0.8 NW 17 20 9 11 1002.0 1002.0 1.8
25/03:13am 12.4 8.2 11.0 91 0.7 NW 24 32 13 17 1002.3 1002.3 1.8
25/03:00am 12.6 8.5 11.3 92 0.7 NNW 24 30 13 16 1002.5 1002.5 1.8
25/02:59am 12.7 9.0 11.6 93 0.6 NNW 22 28 12 15 1002.5 1002.5 1.8
25/02:30am 12.6 9.5 11.7 94 0.5 NNW 19 24 10 13 1003.1 1003.1 1.8
25/02:18am 12.6 9.3 11.7 94 0.5 NNW 20 26 11 14 1003.4 1003.4 1.8
25/02:00am 12.7 8.7 11.8 94 0.5 NNW 24 32 13 17 1003.7 1003.7 1.8
25/01:30am 12.7 8.4 11.9 95 0.4 NNW 26 35 14 19 1003.9 1003.9 1.8
25/01:27am 12.7 8.0 11.9 95 0.4 NNW 28 35 15 19 1004.0 1004.0 1.8
25/01:00am 12.7 8.7 11.9 95 0.4 NNW 24 33 13 18 1004.1 1004.1 1.8
25/12:52am 12.7 8.7 11.9 95 0.4 NW 24 30 13 16 1004.2 1004.2 1.6
25/12:42am 12.9 8.6 12.1 95 0.4 NNW 26 33 14 18 1004.3 1004.3 1.4
25/12:30am 12.7 9.6 12.2 97 0.3 NNE 20 26 11 14 1004.4 1004.4 0.6
25/12:00am 12.9 10.0 12.3 96 0.3 NNE 19 22 10 12 1004.4 1004.4 0.6
 
Date/Time
EST
Temp
°C
App
Temp
°C
Dew
Point
°C
Rel
Hum
%
Delta-T
°C
Wind Press
QNH
hPa
Press
MSL
hPa
Rain since
9am
mm
Dir  Spd
km/h
Gust
km/h
Spd
kts
Gust
kts
24/11:39pm 12.8 9.7 12.3 97 0.3 NE 20 26 11 14 1004.5 1004.5 0.6
24/11:30pm 12.7 10.2 12.2 97 0.3 NE 17 26 9 14 1004.6 1004.6 0.6
24/11:00pm 12.0 11.1 11.4 96 0.3 E 7 11 4 6 1005.0 1005.0 0.6
24/10:46pm 11.9 12.0 11.4 97 0.3 SE 2 7 1 4 1005.1 1005.1 0.6
24/10:30pm 11.7 11.7 11.2 97 0.3 E 2 6 1 3 1005.3 1005.3 0.6
24/10:00pm 11.7 10.8 11.2 97 0.3 SE 7 9 4 5 1005.4 1005.4 0.6
24/09:30pm 11.7 10.8 11.2 97 0.3 SE 7 9 4 5 1005.6 1005.6 0.6
24/09:00pm 11.5 10.5 11.0 97 0.3 SE 7 9 4 5 1005.8 1005.8 0.6
24/08:30pm 11.4 10.4 10.9 97 0.3 SSE 7 9 4 5 1006.0 1006.0 0.6
24/08:00pm 11.8 10.9 11.3 97 0.3 E 7 9 4 5 1006.1 1006.1 0.6
24/07:47pm 11.8 10.9 11.3 97 0.3 E 7 11 4 6 1006.1 1006.1 0.6
24/07:30pm 12.2 10.3 11.7 97 0.3 ENE 13 17 7 9 1006.1 1006.1 0.6
24/07:00pm 12.4 11.3 11.9 97 0.3 E 9 11 5 6 1006.0 1006.0 0.6
24/06:45pm 12.4 11.3 11.8 96 0.3 E 9 11 5 6 1006.0 1006.0 0.6
24/06:30pm 12.7 11.3 12.1 96 0.3 ENE 11 13 6 7 1006.0 1006.0 0.6
24/06:00pm 13.0 12.0 12.4 96 0.3 NE 9 13 5 7 1006.2 1006.2 0.6
24/05:30pm 13.5 12.6 12.7 95 0.4 NE 9 13 5 7 1006.4 1006.4 0.6
24/05:14pm 13.5 12.3 12.7 95 0.4 NNE 11 15 6 8 1006.5 1006.5 0.6
24/05:13pm 13.6 12.4 12.8 95 0.4 NNE 11 15 6 8 1006.5 1006.5 0.6
24/05:01pm 13.7 12.5 12.9 95 0.4 N 11 15 6 8 1006.6 1006.6 0.6
24/05:00pm 13.8 12.7 13.0 95 0.4 N 11 13 6 7 1006.6 1006.6 0.6
24/04:30pm 13.7 11.7 12.8 94 0.5 N 15 17 8 9 1006.6 1006.6 0.6
24/04:03pm 13.8 12.2 12.7 93 0.6 N 13 19 7 10 1006.5 1006.5 0.6
24/04:00pm 13.9 12.3 12.8 93 0.6 NNE 13 19 7 10 1006.5 1006.5 0.6
24/03:30pm 14.2 12.3 12.9 92 0.7 NNE 15 19 8 10 1006.5 1006.5 0.6
24/03:00pm 14.5 12.2 13.0 91 0.8 NNE 17 22 9 12 1006.5 1006.5 0.6
24/02:30pm 14.5 11.9 13.2 92 0.7 NNE 19 24 10 13 1006.8 1006.8 0.6
24/02:00pm 14.6 11.7 13.0 90 0.9 NE 20 24 11 13 1006.9 1006.9 0.6
24/01:30pm 15.0 11.8 13.2 89 1.0 NE 22 28 12 15 1007.3 1007.3 0.6
24/01:00pm 15.1 11.6 13.5 90 0.9 NE 24 30 13 16 1007.8 1007.8 0.6
24/12:30pm 14.7 10.4 13.1 90 0.9 NE 28 33 15 18 1008.1 1008.1 0.6
24/12:00pm 14.6 10.7 13.3 92 0.7 NE 26 32 14 17 1008.4 1008.4 0.6
24/11:30am 14.1 10.5 13.0 93 0.6 NE 24 30 13 16 1009.1 1009.2 0.6
24/11:26am 14.2 10.6 13.1 93 0.6 NE 24 30 13 16 1009.2 1009.3 0.6
24/11:03am 13.8 9.3 12.7 93 0.6 NE 28 33 15 18 1009.3 1009.4 0.6
24/11:00am 13.8 9.3 12.7 93 0.6 NE 28 33 15 18 1009.4 1009.5 0.6
24/10:37am 13.6 9.8 12.5 93 0.6 NE 24 33 13 18 1009.6 1009.7 0.6
24/10:30am 13.7 8.8 12.6 93 0.6 NE 30 33 16 18 1009.7 1009.8 0.6
24/10:03am 13.6 9.4 12.5 93 0.6 ENE 26 35 14 19 1009.9 1010.0 0.6
24/10:00am 13.8 10.2 12.9 94 0.5 ENE 24 33 13 18 1010.0 1010.1 0.6
24/09:59am 13.5 9.8 12.6 94 0.5 ENE 24 33 13 18 1010.0 1010.1 0.6
24/09:46am 12.9 8.5 11.6 92 0.7 NE 26 35 14 19 1010.4 1010.5 0.4
24/09:43am 12.9 8.4 11.5 91 0.7 NE 26 35 14 19 1010.4 1010.5 0.4
24/09:30am 13.3 9.3 11.7 90 0.9 ENE 24 32 13 17 1010.4 1010.5 0.0
24/09:24am 13.3 9.3 11.7 90 0.9 ENE 24 32 13 17 1010.6 1010.7 0.0
24/09:00am 13.0 9.7 11.6 91 0.7 ENE 20 26 11 14 1010.8 1010.9 0.0
24/08:30am 12.6 10.5 11.3 92 0.7 E 13 17 7 9 1011.0 1011.1 0.0
24/08:00am 10.8 9.1 9.7 93 0.6 SSE 9 13 5 7 1011.3 1011.4 0.0
24/07:30am 10.7 9.0 9.8 94 0.5 S 9 13 5 7 1011.5 1011.6 0.0
24/07:00am 10.3 7.7 9.2 93 0.5 S 13 15 7 8 1011.6 1011.7 0.0
24/06:58am 10.3 7.7 9.2 93 0.5 S 13 15 7 8 1011.6 1011.7 0.0
24/06:30am 10.0 7.3 9.1 94 0.4 S 13 15 7 8 1011.7 1011.8 0.0
24/06:26am 10.0 7.3 9.1 94 0.4 S 13 17 7 9 1011.7 1011.8 0.0
24/06:00am 9.7 7.0 8.8 94 0.4 S 13 15 7 8 1011.6 1011.7 0.0
24/05:30am 9.5 6.3 8.6 94 0.4 S 15 17 8 9 1011.7 1011.8 0.0
24/05:03am 9.5 5.9 8.4 93 0.5 S 17 20 9 11 1011.7 1011.8 0.0
24/05:00am 9.5 5.9 8.4 93 0.5 S 17 20 9 11 1011.7 1011.8 0.0
24/04:30am 9.2 5.6 8.4 95 0.4 S 17 20 9 11 1011.7 1011.8 0.0
24/04:00am 9.0 6.1 8.2 95 0.4 S 13 19 7 10 1011.9 1012.0 0.0
24/03:30am 9.1 5.1 8.3 95 0.4 SSE 19 20 10 11 1012.1 1012.2 0.0
24/03:19am 8.9 4.9 8.3 96 0.3 SSE 19 20 10 11 1012.3 1012.4 0.0
24/03:00am 8.7 5.8 8.1 96 0.3 SSE 13 19 7 10 1012.4 1012.5 0.0
24/02:37am 9.1 5.9 8.5 96 0.3 SSE 15 19 8 10 1012.8 1012.9 0.0
24/02:30am 9.0 5.8 8.4 96 0.3 SSE 15 17 8 9 1013.0 1013.1 0.0
24/02:00am 9.0 5.7 8.2 95 0.4 SSE 15 17 8 9 1013.4 1013.5 0.0
24/01:30am 8.3 5.3 7.7 96 0.3 SSE 13 15 7 8 1013.7 1013.8 0.0
24/01:00am 8.4 5.4 7.8 96 0.3 SSE 13 15 7 8 1013.7 1013.8 0.0
24/12:30am 8.8 5.5 8.2 96 0.3 SSE 15 17 8 9 1013.7 1013.8 0.0
24/12:00am 9.4 6.3 8.9 97 0.2 SSE 15 17 8 9 1014.0 1014.1 0.0
 
Date/Time
EST
Temp
°C
App
Temp
°C
Dew
Point
°C
Rel
Hum
%
Delta-T
°C
Wind Press
QNH
hPa
Press
MSL
hPa
Rain since
9am
mm
Dir  Spd
km/h
Gust
km/h
Spd
kts
Gust
kts
23/11:30pm 9.0 6.2 8.6 97 0.2 SSE 13 15 7 8 1014.1 1014.2 0.0
23/11:00pm 9.2 6.4 8.6 96 0.3 SSE 13 15 7 8 1014.4 1014.5 0.0
23/10:30pm 9.3 6.9 8.7 96 0.3 SE 11 11 6 6 1014.6 1014.7 0.0
23/10:00pm 9.4 7.4 8.6 95 0.4 SE 9 9 5 5 1014.8 1014.9 0.0
23/09:30pm 9.8 8.2 8.9 94 0.4 SE 7 7 4 4 1014.8 1014.9 0.0
23/09:00pm 9.9 8.3 8.8 93 0.5 SE 7 9 4 5 1014.9 1015.0 0.0
23/08:30pm 11.1 9.7 9.5 90 0.8 NNE 7 7 4 4 1014.9 1015.0 0.0
23/08:00pm 11.7 10.4 10.1 90 0.8 N 7 9 4 5 1015.1 1015.2 0.0
23/07:30pm 11.2 9.8 9.6 90 0.8 N 7 9 4 5 1015.1 1015.2 0.0
23/07:00pm 11.6 9.9 9.7 88 1.0 N 9 11 5 6 1015.0 1015.1 0.0
23/06:30pm 11.8 9.7 9.7 87 1.1 N 11 13 6 7 1014.7 1014.8 0.0
23/06:00pm 12.3 10.2 9.7 84 1.3 NNW 11 13 6 7 1014.6 1014.7 0.0
23/05:30pm 13.2 11.7 10.4 83 1.5 NNW 9 11 5 6 1014.5 1014.6 0.0
23/05:00pm 13.3 11.2 9.9 80 1.7 NW 11 13 6 7 1014.4 1014.5 0.0
23/04:30pm 13.6 11.8 11.0 84 1.4 NW 11 15 6 8 1014.5 1014.6 0.0
23/04:00pm 13.9 11.9 11.4 85 1.3 NW 13 17 7 9 1014.5 1014.6 0.0
23/03:30pm 14.0 11.6 11.3 84 1.4 WNW 15 19 8 10 1014.7 1014.8 0.0
23/03:28pm 14.0 11.6 11.3 84 1.4 WNW 15 19 8 10 1014.7 1014.8 0.0
23/03:00pm 14.3 12.0 11.8 85 1.3 NW 15 19 8 10 1015.1 1015.2 0.0
23/02:30pm 14.0 12.0 11.5 85 1.3 NNW 13 17 7 9 1015.3 1015.4 0.0
23/02:00pm 14.0 11.6 11.3 84 1.4 N 15 19 8 10 1015.4 1015.5 0.0
23/01:30pm 14.7 12.1 12.0 84 1.5 N 17 20 9 11 1015.6 1015.7 0.0
23/01:23pm 15.0 12.6 12.7 86 1.3 N 17 20 9 11 1015.6 1015.7 0.0
23/01:00pm 14.7 11.7 12.4 86 1.3 N 20 24 11 13 1015.8 1015.9 0.0
23/12:30pm 14.0 10.9 11.7 86 1.2 N 19 22 10 12 1016.1 1016.2 0.0
23/12:00pm 13.9 10.5 11.4 85 1.3 N 20 24 11 13 1016.4 1016.5 0.0
23/11:30am 13.8 10.3 10.8 82 1.6 N 20 24 11 13 1016.6 1016.7 0.0
23/11:00am 14.9 11.3 10.5 75 2.3 NNE 20 24 11 13 1016.8 1016.9 0.0
23/10:30am 14.5 10.8 9.5 72 2.6 NNE 19 22 10 12 1017.1 1017.2 0.0
23/10:00am 14.5 11.5 9.1 70 2.7 N 15 20 8 11 1017.1 1017.2 0.0
23/09:30am 14.9 11.9 7.7 62 3.6 ESE 13 20 7 11 1017.3 1017.4 0.0
23/09:00am 14.6 11.0 8.5 67 3.1 SE 17 20 9 11 1017.4 1017.5 0.2
23/08:30am 13.7 9.6 8.5 71 2.6 SSE 20 28 11 15 1017.3 1017.4 0.2
23/08:00am 12.7 9.2 8.6 76 2.0 SSE 17 20 9 11 1017.4 1017.5 0.2
23/07:30am 11.4 7.9 8.8 84 1.3 SSE 17 20 9 11 1017.4 1017.5 0.2
23/07:00am 10.2 7.0 8.6 90 0.8 S 15 19 8 10 1017.3 1017.4 0.2
23/06:30am 8.9 5.1 7.7 92 0.6 S 17 20 9 11 1017.1 1017.2 0.2
23/06:00am 9.3 5.0 7.9 91 0.7 S 20 20 11 11 1016.7 1016.8 0.2
23/05:30am 9.2 5.5 7.8 91 0.7 SSE 17 19 9 10 1016.6 1016.7 0.2
23/05:00am 9.6 6.6 7.9 89 0.8 S 13 15 7 8 1016.4 1016.5 0.2
23/04:30am 10.0 7.2 8.4 90 0.8 S 13 15 7 8 1016.1 1016.2 0.2
23/04:00am 10.6 7.9 8.9 89 0.8 SSE 13 17 7 9 1016.1 1016.2 0.2
23/03:30am 11.0 8.3 9.1 88 0.9 SSE 13 17 7 9 1016.1 1016.2 0.2
23/03:00am 11.1 8.6 9.7 91 0.7 SSE 13 15 7 8 1016.1 1016.2 0.2
23/02:30am 11.0 8.9 9.6 91 0.7 SSE 11 15 6 8 1016.1 1016.2 0.2
23/02:00am 10.5 7.5 9.3 92 0.6 SSE 15 17 8 9 1016.3 1016.4 0.2
23/01:30am 9.7 6.9 8.6 93 0.5 SSE 13 15 7 8 1016.4 1016.5 0.2
23/01:00am 10.2 7.8 8.8 91 0.7 SSE 11 13 6 7 1016.5 1016.6 0.2
23/12:30am 11.0 9.7 10.1 94 0.5 SE 7 13 4 7 1016.5 1016.6 0.2
23/12:00am 10.8 8.8 10.0 95 0.4 ESE 11 13 6 7 1016.5 1016.6 0.2
 
Date/Time
EST
Temp
°C
App
Temp
°C
Dew
Point
°C
Rel
Hum
%
Delta-T
°C
Wind Press
QNH
hPa
Press
MSL
hPa
Rain since
9am
mm
Dir  Spd
km/h
Gust
km/h
Spd
kts
Gust
kts
22/11:30pm 10.8 9.1 9.7 93 0.6 E 9 11 5 6 1016.5 1016.6 0.2
22/11:00pm 11.6 10.0 10.3 92 0.7 ESE 9 11 5 6 1016.5 1016.6 0.2
22/10:30pm 12.4 10.9 10.5 88 1.0 E 9 13 5 7 1016.6 1016.7 0.2
22/10:00pm 12.5 11.0 10.6 88 1.0 E 9 11 5 6 1016.4 1016.5 0.2
22/09:30pm 13.0 12.0 10.9 87 1.1 E 7 9 4 5 1016.4 1016.5 0.2
22/09:00pm 13.4 12.6 10.9 85 1.3 NNW 6 7 3 4 1016.3 1016.4 0.2
22/08:30pm 13.4 11.7 11.1 86 1.2 SSE 11 15 6 8 1016.1 1016.2 0.2
22/08:00pm 13.5 11.5 11.4 87 1.1 SSE 13 15 7 8 1015.9 1016.0 0.2
22/07:30pm 13.4 11.3 11.3 87 1.1 SSE 13 15 7 8 1015.7 1015.8 0.2
22/07:00pm 14.3 12.9 10.9 80 1.8 WSW 9 11 5 6 1015.5 1015.6 0.2
22/06:30pm 14.2 11.8 10.2 77 2.1 W 13 17 7 9 1015.1 1015.2 0.2
22/06:00pm 14.8 11.0 9.2 69 2.9 W 19 24 10 13 1015.0 1015.1 0.2
22/05:30pm 14.7 11.0 10.1 74 2.4 W 20 26 11 14 1014.8 1014.9 0.2
22/05:00pm 15.2 11.9 11.6 79 1.9 WNW 20 24 11 13 1014.4 1014.5 0.2
22/04:30pm 14.7 11.4 11.5 81 1.7 WNW 20 24 11 13 1014.1 1014.2 0.2
22/04:00pm 15.6 13.1 11.0 74 2.5 NW 15 19 8 10 1013.8 1013.9 0.2
22/03:30pm 16.0 12.5 11.0 72 2.7 NW 20 24 11 13 1013.7 1013.8 0.2
22/03:00pm 14.8 11.4 10.6 76 2.2 WNW 19 22 10 12 1013.7 1013.8 0.2
22/02:30pm 15.5 11.8 11.5 77 2.2 WNW 22 28 12 15 1013.6 1013.7 0.2
22/02:00pm 16.4 13.0 11.3 72 2.7 WNW 20 26 11 14 1013.5 1013.6 0.2
22/01:30pm 16.5 13.0 10.8 69 3.0 NW 20 24 11 13 1013.6 1013.7 0.2
22/01:00pm 16.8 13.4 11.3 70 3.0 NW 20 24 11 13 1013.6 1013.7 0.2
22/12:30pm 17.7 16.2 8.6 55 4.7 NNE 6 13 3 7 1013.8 1013.9 0.2
22/12:00pm 17.3 15.4 9.2 59 4.2 SE 9 26 5 14 1013.8 1013.9 0.2
22/11:30am 17.0 14.5 9.7 62 3.8 SSE 13 20 7 11 1014.0 1014.1 0.2
22/11:00am 16.0 12.9 9.0 63 3.6 SE 15 19 8 10 1014.2 1014.3 0.2
22/10:30am 15.6 12.5 8.8 64 3.5 SSE 15 20 8 11 1014.4 1014.5 0.2

Other Formats:

Comma delimited format used in spreadsheet applications
http://www.bom.gov.au/fwo/IDT60801/IDT60801.95960.axf

JavaScript Object Notation format (JSON) in row-major order
http://www.bom.gov.au/fwo/IDT60801/IDT60801.95960.json